createdAt,value
2019-06-01T00:02:17.320Z,16.30
2019-06-01T00:04:47.201Z,16.40
2019-06-01T00:07:16.349Z,16.40
2019-06-01T00:09:45.419Z,16.40
2019-06-01T00:12:14.593Z,16.30
2019-06-01T00:14:43.737Z,16.30
2019-06-01T00:17:12.761Z,16.30
2019-06-01T00:19:42.041Z,16.30
2019-06-01T00:22:11.156Z,16.30
2019-06-01T00:24:40.137Z,16.30
2019-06-01T00:27:09.186Z,16.30
2019-06-01T00:29:38.297Z,16.30
2019-06-01T00:32:07.397Z,16.30
2019-06-01T00:34:36.362Z,16.30
2019-06-01T00:37:05.389Z,16.20
2019-06-01T00:39:34.465Z,16.20
2019-06-01T00:42:03.495Z,16.10
2019-06-01T00:44:32.593Z,16.10
2019-06-01T00:47:01.597Z,16.10
2019-06-01T00:49:30.604Z,16.10
2019-06-01T00:51:59.639Z,16.10
2019-06-01T00:54:28.772Z,16.10
2019-06-01T00:56:57.854Z,16.10
2019-06-01T00:59:27.034Z,16.10
2019-06-01T01:01:56.222Z,16.10
2019-06-01T01:04:25.373Z,16.10
2019-06-01T01:06:54.842Z,16.10
2019-06-01T01:09:24.134Z,16.10
2019-06-01T01:11:53.432Z,16.00
2019-06-01T01:14:22.647Z,16.00
2019-06-01T01:16:51.763Z,16.00
2019-06-01T01:19:20.727Z,16.00
2019-06-01T01:21:52.123Z,15.90
2019-06-01T01:24:21.266Z,16.00
2019-06-01T01:26:50.562Z,16.00
2019-06-01T01:29:19.584Z,16.00
2019-06-01T01:31:49.153Z,16.00
2019-06-01T01:34:18.260Z,16.00
2019-06-01T01:36:47.606Z,16.00
2019-06-01T01:39:16.668Z,16.00
2019-06-01T01:41:45.631Z,15.90
2019-06-01T01:44:14.624Z,15.90
2019-06-01T01:46:43.648Z,15.90
2019-06-01T01:49:12.721Z,15.90
2019-06-01T01:51:41.753Z,15.90
2019-06-01T01:54:10.826Z,15.90
2019-06-01T01:56:39.815Z,15.80
2019-06-01T01:59:08.862Z,15.80
2019-06-01T02:01:37.859Z,15.80
2019-06-01T02:04:06.922Z,15.80
2019-06-01T02:06:35.982Z,15.80
2019-06-01T02:09:07.849Z,15.80
2019-06-01T02:11:36.851Z,15.90
2019-06-01T02:14:05.998Z,15.80
2019-06-01T02:16:35.069Z,15.80
2019-06-01T02:19:04.133Z,15.80
2019-06-01T02:21:33.213Z,15.80
2019-06-01T02:24:03.315Z,15.80
2019-06-01T02:26:32.342Z,15.80
2019-06-01T02:29:02.501Z,15.80
2019-06-01T02:31:41.858Z,15.70
2019-06-01T02:34:03.963Z,15.70
2019-06-01T02:36:33.585Z,15.80
2019-06-01T02:39:03.617Z,15.70
2019-06-01T02:41:33.708Z,15.70
2019-06-01T02:44:03.825Z,15.70
2019-06-01T02:46:35.691Z,15.70
2019-06-01T02:49:06.115Z,15.70
2019-06-01T02:51:35.126Z,15.70
2019-06-01T02:54:04.243Z,15.70
2019-06-01T02:56:33.311Z,15.70
2019-06-01T02:59:02.350Z,15.70
2019-06-01T03:01:34.960Z,15.70
2019-06-01T03:04:08.092Z,15.70
2019-06-01T03:06:40.019Z,15.70
2019-06-01T03:09:09.652Z,15.70
2019-06-01T03:11:40.196Z,15.70
2019-06-01T03:14:10.898Z,15.80
2019-06-01T03:16:41.335Z,15.80
2019-06-01T03:19:12.142Z,15.80
2019-06-01T03:21:44.136Z,15.80
2019-06-01T03:24:13.630Z,15.80
2019-06-01T03:26:45.340Z,15.70
2019-06-01T03:29:16.497Z,15.80
2019-06-01T03:31:45.848Z,15.80
2019-06-01T03:34:14.859Z,15.80
2019-06-01T03:36:44.196Z,15.80
2019-06-01T03:39:13.303Z,15.90
2019-06-01T03:41:42.522Z,16.00
2019-06-01T03:44:12.816Z,16.10
2019-06-01T03:46:42.058Z,16.20
2019-06-01T03:49:11.961Z,16.30
2019-06-01T03:51:41.186Z,16.30
2019-06-01T03:54:10.325Z,16.40
2019-06-01T03:56:39.473Z,16.40
2019-06-01T03:59:09.345Z,16.70
2019-06-01T04:01:38.543Z,16.90
2019-06-01T04:04:08.110Z,17.10
2019-06-01T04:06:38.273Z,17.50
2019-06-01T04:09:08.033Z,17.70
2019-06-01T04:11:37.122Z,17.90
2019-06-01T04:14:07.745Z,18.10
2019-06-01T04:16:36.868Z,18.30
2019-06-01T04:19:07.937Z,18.60
2019-06-01T04:21:37.003Z,18.80
2019-06-01T04:24:06.114Z,19.00
2019-06-01T04:26:35.143Z,19.20
2019-06-01T04:29:04.864Z,19.30
2019-06-01T04:31:34.282Z,19.30
2019-06-01T04:34:04.474Z,19.50
2019-06-01T04:36:33.586Z,19.70
2019-06-01T04:39:03.322Z,20.00
2019-06-01T04:41:32.421Z,20.20
2019-06-01T04:44:01.452Z,20.50
2019-06-01T04:46:30.541Z,20.80
2019-06-01T04:48:59.509Z,21.00
2019-06-01T04:51:28.473Z,21.20
2019-06-01T04:53:57.509Z,21.40
2019-06-01T04:56:26.538Z,21.50
2019-06-01T04:58:55.560Z,21.60
2019-06-01T05:01:24.611Z,21.80
2019-06-01T05:03:53.604Z,21.50
2019-06-01T05:06:22.721Z,22.00
2019-06-01T05:08:51.694Z,22.40
2019-06-01T05:11:20.658Z,22.60
2019-06-01T05:13:49.965Z,22.60
2019-06-01T05:16:19.030Z,22.50
2019-06-01T05:18:49.246Z,22.50
2019-06-01T05:21:18.338Z,22.70
2019-06-01T05:23:47.293Z,22.80
2019-06-01T05:26:17.145Z,22.90
2019-06-01T05:28:46.277Z,23.00
2019-06-01T05:31:23.441Z,23.10
2019-06-01T05:33:46.040Z,23.30
2019-06-01T05:36:16.159Z,22.80
2019-06-01T05:38:45.302Z,22.10
2019-06-01T05:41:14.932Z,21.70
2019-06-01T05:43:44.238Z,21.20
2019-06-01T05:46:14.022Z,20.80
2019-06-01T05:48:43.157Z,20.60
2019-06-01T05:51:13.813Z,20.50
2019-06-01T05:53:42.951Z,20.40
2019-06-01T05:56:12.698Z,20.50
2019-06-01T05:58:41.875Z,20.50
2019-06-01T06:01:12.316Z,20.50
2019-06-01T06:03:41.537Z,20.50
2019-06-01T06:06:11.707Z,20.60
2019-06-01T06:08:40.884Z,20.60
2019-06-01T06:11:10.824Z,20.60
2019-06-01T06:13:40.064Z,20.70
2019-06-01T06:16:09.064Z,20.70
2019-06-01T06:18:38.133Z,20.80
2019-06-01T06:21:07.156Z,20.80
2019-06-01T06:23:36.145Z,20.80
2019-06-01T06:26:05.326Z,20.70
2019-06-01T06:28:34.396Z,20.60
2019-06-01T06:31:03.404Z,20.60
2019-06-01T06:33:32.388Z,20.50
2019-06-01T06:36:01.437Z,20.60
2019-06-01T06:38:30.422Z,20.90
2019-06-01T06:41:00.051Z,21.10
2019-06-01T06:43:33.117Z,21.40
2019-06-01T06:45:59.990Z,21.50
2019-06-01T06:48:29.257Z,21.50
2019-06-01T06:50:58.470Z,21.30
2019-06-01T06:53:34.791Z,21.30
2019-06-01T06:55:58.342Z,21.40
2019-06-01T06:58:27.418Z,21.30
2019-06-01T07:00:56.420Z,21.30
2019-06-01T07:03:25.581Z,21.40
2019-06-01T07:05:54.543Z,21.40
2019-06-01T07:08:23.965Z,21.70
2019-06-01T07:10:53.032Z,21.80
2019-06-01T07:13:23.352Z,21.80
2019-06-01T07:15:52.450Z,22.00
2019-06-01T07:18:21.614Z,22.00
2019-06-01T07:20:50.681Z,22.20
2019-06-01T07:23:19.818Z,22.40
2019-06-01T07:25:48.995Z,22.50
2019-06-01T07:28:18.037Z,22.60
2019-06-01T07:30:50.332Z,22.60
2019-06-01T07:33:18.044Z,22.80
2019-06-01T07:35:47.144Z,22.90
2019-06-01T07:38:16.347Z,23.00
2019-06-01T07:40:45.352Z,23.10
2019-06-01T07:43:14.532Z,23.10
2019-06-01T07:45:43.663Z,23.10
2019-06-01T07:48:13.036Z,23.30
2019-06-01T07:50:42.070Z,23.30
2019-06-01T07:53:11.197Z,23.20
2019-06-01T07:55:40.595Z,23.50
2019-06-01T07:58:09.657Z,23.50
2019-06-01T08:00:38.854Z,23.70
2019-06-01T08:03:08.038Z,23.90
2019-06-01T08:05:37.163Z,23.90
2019-06-01T08:08:06.283Z,23.90
2019-06-01T08:10:35.405Z,23.90
2019-06-01T08:13:04.622Z,24.00
2019-06-01T08:15:33.797Z,23.90
2019-06-01T08:18:02.896Z,23.80
2019-06-01T08:20:32.281Z,23.90
2019-06-01T08:23:01.529Z,24.00
2019-06-01T08:25:30.756Z,24.00
2019-06-01T08:28:00.225Z,24.10
2019-06-01T08:30:30.647Z,24.20
2019-06-01T08:32:59.835Z,24.40
2019-06-01T08:35:29.171Z,24.60
2019-06-01T08:37:58.343Z,24.50
2019-06-01T08:40:27.516Z,24.30
2019-06-01T08:42:56.600Z,24.30
2019-06-01T08:45:25.562Z,24.50
2019-06-01T08:47:55.594Z,24.50
2019-06-01T08:50:25.705Z,24.60
2019-06-01T08:52:54.896Z,24.60
2019-06-01T08:55:24.119Z,24.50
2019-06-01T08:57:53.248Z,24.40
2019-06-01T09:00:22.721Z,24.30
2019-06-01T09:02:51.771Z,24.40
2019-06-01T09:05:24.456Z,24.50
2019-06-01T09:07:51.645Z,24.40
2019-06-01T09:10:20.807Z,24.50
2019-06-01T09:12:50.074Z,24.50
2019-06-01T09:15:19.367Z,24.50
2019-06-01T09:17:48.689Z,24.40
2019-06-01T09:20:17.829Z,24.60
2019-06-01T09:22:48.139Z,24.50
2019-06-01T09:25:17.653Z,24.50
2019-06-01T09:27:46.808Z,24.70
2019-06-01T09:30:16.361Z,25.00
2019-06-01T09:32:45.431Z,25.10
2019-06-01T09:35:14.781Z,25.30
2019-06-01T09:37:45.864Z,25.40
2019-06-01T09:40:15.002Z,25.30
2019-06-01T09:42:44.097Z,25.30
2019-06-01T09:45:13.431Z,25.40
2019-06-01T09:47:42.541Z,25.50
2019-06-01T09:50:12.104Z,25.30
2019-06-01T09:52:41.222Z,25.40
2019-06-01T09:55:10.493Z,25.30
2019-06-01T09:57:39.694Z,25.20
2019-06-01T10:00:10.361Z,25.40
2019-06-01T10:02:39.491Z,25.70
2019-06-01T10:05:10.003Z,25.90
2019-06-01T10:07:39.482Z,26.20
2019-06-01T10:10:09.433Z,26.50
2019-06-01T10:12:38.575Z,26.80
2019-06-01T10:15:08.566Z,26.80
2019-06-01T10:17:38.863Z,26.50
2019-06-01T10:20:08.212Z,26.30
2019-06-01T10:22:39.593Z,26.50
2019-06-01T10:25:09.064Z,26.50
2019-06-01T10:27:38.670Z,26.70
2019-06-01T10:30:08.384Z,27.10
2019-06-01T10:32:38.042Z,27.10
2019-06-01T10:35:07.726Z,27.20
2019-06-01T10:37:37.576Z,27.20
2019-06-01T10:40:07.158Z,27.20
2019-06-01T10:42:37.856Z,27.20
2019-06-01T10:45:07.746Z,27.30
2019-06-01T10:47:38.347Z,27.40
2019-06-01T10:50:08.796Z,27.20
2019-06-01T10:52:38.362Z,27.20
2019-06-01T10:55:08.361Z,27.40
2019-06-01T10:57:38.509Z,27.40
2019-06-01T11:00:08.601Z,27.30
2019-06-01T11:02:38.849Z,27.30
2019-06-01T11:05:09.690Z,27.30
2019-06-01T11:07:39.158Z,27.50
2019-06-01T11:10:10.089Z,27.40
2019-06-01T11:12:39.284Z,27.60
2019-06-01T11:15:08.641Z,27.60
2019-06-01T11:17:39.078Z,27.90
2019-06-01T11:20:09.295Z,28.00
2019-06-01T11:22:39.609Z,27.80
2019-06-01T11:25:08.776Z,27.70
2019-06-01T11:27:37.878Z,27.80
2019-06-01T11:30:07.675Z,28.00
2019-06-01T11:32:39.493Z,28.30
2019-06-01T11:35:07.743Z,28.50
2019-06-01T11:37:38.234Z,28.20
2019-06-01T11:40:08.249Z,28.20
2019-06-01T11:42:38.884Z,28.20
2019-06-01T11:45:08.526Z,28.10
2019-06-01T11:47:38.784Z,28.20
2019-06-01T11:50:08.705Z,28.30
2019-06-01T11:52:39.201Z,28.40
2019-06-01T11:55:09.151Z,28.50
2019-06-01T11:57:39.492Z,28.60
2019-06-01T12:00:10.441Z,28.40
2019-06-01T12:02:39.855Z,28.10
2019-06-01T12:05:09.692Z,27.90
2019-06-01T12:07:39.922Z,27.80
2019-06-01T12:10:09.619Z,27.60
2019-06-01T12:12:40.024Z,27.40
2019-06-01T12:15:09.804Z,27.40
2019-06-01T12:17:38.932Z,27.50
2019-06-01T12:20:08.697Z,27.70
2019-06-01T12:22:38.812Z,27.90
2019-06-01T12:25:08.216Z,28.00
2019-06-01T12:27:37.406Z,28.20
2019-06-01T12:30:06.785Z,28.10
2019-06-01T12:32:35.750Z,27.80
2019-06-01T12:35:05.594Z,27.90
2019-06-01T12:37:54.971Z,27.80
2019-06-01T12:40:07.791Z,27.80
2019-06-01T12:42:36.808Z,27.60
2019-06-01T12:45:06.451Z,27.70
2019-06-01T12:47:35.559Z,28.00
2019-06-01T12:50:05.187Z,28.20
2019-06-01T12:52:34.215Z,28.10
2019-06-01T12:55:03.369Z,28.00
2019-06-01T12:57:32.489Z,27.90
2019-06-01T13:00:01.453Z,27.90
2019-06-01T13:02:30.589Z,28.10
2019-06-01T13:04:59.692Z,28.20
2019-06-01T13:07:28.666Z,28.30
2019-06-01T13:09:57.781Z,28.40
2019-06-01T13:12:26.733Z,28.20
2019-06-01T13:14:55.760Z,28.10
2019-06-01T13:17:24.805Z,28.30
2019-06-01T13:19:53.844Z,28.40
2019-06-01T13:22:22.790Z,28.50
2019-06-01T13:24:52.093Z,28.50
2019-06-01T13:27:21.192Z,28.50
2019-06-01T13:29:50.297Z,28.70
2019-06-01T13:32:19.472Z,28.80
2019-06-01T13:34:49.156Z,28.80
2019-06-01T13:37:18.278Z,28.80
2019-06-01T13:39:52.569Z,28.80
2019-06-01T13:42:17.883Z,28.90
2019-06-01T13:44:47.389Z,29.00
2019-06-01T13:47:16.484Z,29.20
2019-06-01T13:49:46.858Z,29.30
2019-06-01T13:52:16.150Z,29.40
2019-06-01T13:54:46.446Z,29.40
2019-06-01T13:57:15.588Z,29.10
2019-06-01T13:59:44.784Z,28.90
2019-06-01T14:02:13.899Z,28.70
2019-06-01T14:04:42.918Z,28.20
2019-06-01T14:07:11.904Z,27.90
2019-06-01T14:09:40.937Z,27.80
2019-06-01T14:12:10.132Z,27.80
2019-06-01T14:14:39.153Z,28.00
2019-06-01T14:17:08.196Z,28.00
2019-06-01T14:19:37.208Z,28.10
2019-06-01T14:22:06.424Z,28.10
2019-06-01T14:24:35.452Z,28.10
2019-06-01T14:27:04.614Z,28.00
2019-06-01T14:29:33.612Z,28.30
2019-06-01T14:32:02.864Z,28.30
2019-06-01T14:34:31.930Z,28.30
2019-06-01T14:37:00.915Z,28.40
2019-06-01T14:39:30.080Z,28.50
2019-06-01T14:41:59.042Z,28.40
2019-06-01T14:44:28.011Z,28.30
2019-06-01T14:47:04.052Z,28.40
2019-06-01T14:49:27.749Z,28.20
2019-06-01T14:51:57.839Z,28.10
2019-06-01T14:54:26.945Z,28.20
2019-06-01T14:56:55.951Z,28.20
2019-06-01T14:59:24.874Z,28.40
2019-06-01T15:01:54.224Z,28.40
2019-06-01T15:04:23.324Z,28.30
2019-06-01T15:06:52.419Z,28.20
2019-06-01T15:09:21.579Z,28.20
2019-06-01T15:11:50.680Z,28.00
2019-06-01T15:14:19.992Z,27.80
2019-06-01T15:16:49.511Z,27.80
2019-06-01T15:19:18.747Z,27.90
2019-06-01T15:21:47.992Z,27.90
2019-06-01T15:24:16.984Z,27.80
2019-06-01T15:26:45.933Z,27.80
2019-06-01T15:29:14.945Z,27.80
2019-06-01T15:31:44.124Z,27.80
2019-06-01T15:34:13.131Z,27.80
2019-06-01T15:36:42.123Z,27.80
2019-06-01T15:39:24.155Z,27.80
2019-06-01T15:41:41.740Z,27.70
2019-06-01T15:44:10.712Z,27.80
2019-06-01T15:46:39.833Z,27.90
2019-06-01T15:49:09.393Z,28.00
2019-06-01T15:51:38.442Z,28.00
2019-06-01T15:54:07.572Z,27.90
2019-06-01T15:56:36.512Z,27.80
2019-06-01T15:59:05.661Z,27.80
2019-06-01T16:01:34.897Z,28.00
2019-06-01T16:04:03.996Z,28.10
2019-06-01T16:06:33.006Z,28.20
2019-06-01T16:09:02.041Z,28.40
2019-06-01T16:11:30.996Z,28.50
2019-06-01T16:14:00.194Z,28.70
2019-06-01T16:16:29.181Z,29.60
2019-06-01T16:19:02.855Z,30.40
2019-06-01T16:21:28.918Z,31.10
2019-06-01T16:23:58.272Z,31.90
2019-06-01T16:26:27.757Z,32.40
2019-06-01T16:28:56.693Z,32.60
2019-06-01T16:31:25.690Z,32.70
2019-06-01T16:33:55.024Z,32.70
2019-06-01T16:36:24.352Z,32.70
2019-06-01T16:38:57.949Z,32.90
2019-06-01T16:41:24.167Z,33.20
2019-06-01T16:43:53.253Z,33.40
2019-06-01T16:46:22.382Z,33.50
2019-06-01T16:48:51.492Z,33.30
2019-06-01T16:51:20.853Z,33.30
2019-06-01T16:53:49.801Z,33.10
2019-06-01T16:56:18.943Z,33.20
2019-06-01T16:58:48.047Z,33.20
2019-06-01T17:01:17.183Z,33.40
2019-06-01T17:03:46.200Z,33.60
2019-06-01T17:06:15.300Z,33.80
2019-06-01T17:08:44.746Z,33.80
2019-06-01T17:11:14.275Z,33.70
2019-06-01T17:13:43.240Z,33.50
2019-06-01T17:16:12.358Z,33.40
2019-06-01T17:18:41.381Z,33.40
2019-06-01T17:21:10.416Z,33.10
2019-06-01T17:23:39.667Z,33.10
2019-06-01T17:26:08.983Z,33.20
2019-06-01T17:28:38.175Z,32.90
2019-06-01T17:31:08.465Z,32.60
2019-06-01T17:33:37.669Z,32.30
2019-06-01T17:36:06.902Z,32.10
2019-06-01T17:38:36.244Z,32.50
2019-06-01T17:41:06.692Z,32.50
2019-06-01T17:43:35.720Z,32.70
2019-06-01T17:46:05.296Z,32.70
2019-06-01T17:48:34.614Z,32.70
2019-06-01T17:51:04.475Z,32.40
2019-06-01T17:53:53.530Z,31.80
2019-06-01T17:56:22.800Z,31.60
2019-06-01T17:58:51.843Z,31.00
2019-06-01T18:01:20.971Z,30.20
2019-06-01T18:03:51.605Z,29.60
2019-06-01T18:06:20.665Z,29.50
2019-06-01T18:08:49.661Z,29.60
2019-06-01T18:11:18.810Z,29.50
2019-06-01T18:13:47.968Z,29.10
2019-06-01T18:16:17.166Z,28.80
2019-06-01T18:18:46.206Z,28.60
2019-06-01T18:21:18.745Z,28.60
2019-06-01T18:23:49.261Z,28.80
2019-06-01T18:26:18.424Z,28.70
2019-06-01T18:28:47.651Z,28.70
2019-06-01T18:31:16.806Z,28.60
2019-06-01T18:33:46.074Z,28.10
2019-06-01T18:36:15.325Z,27.70
2019-06-01T18:38:44.372Z,27.30
2019-06-01T18:41:19.408Z,26.80
2019-06-01T18:43:44.325Z,26.50
2019-06-01T18:46:14.414Z,26.10
2019-06-01T18:48:43.845Z,25.90
2019-06-01T18:51:14.311Z,25.50
2019-06-01T18:53:43.650Z,25.40
2019-06-01T18:56:12.769Z,25.10
2019-06-01T18:58:41.997Z,25.00
2019-06-01T19:01:11.036Z,24.80
2019-06-01T19:03:40.130Z,24.60
2019-06-01T19:06:09.566Z,24.40
2019-06-01T19:08:38.631Z,24.10
2019-06-01T19:11:08.382Z,24.00
2019-06-01T19:13:37.465Z,23.90
2019-06-01T19:16:06.595Z,23.80
2019-06-01T19:18:35.582Z,23.60
2019-06-01T19:21:04.817Z,23.50
2019-06-01T19:23:33.874Z,23.40
2019-06-01T19:26:03.023Z,23.20
2019-06-01T19:28:31.999Z,23.00
2019-06-01T19:31:01.105Z,22.80
2019-06-01T19:33:30.225Z,22.60
2019-06-01T19:36:00.691Z,22.40
2019-06-01T19:38:32.071Z,22.30
2019-06-01T19:41:01.028Z,22.20
2019-06-01T19:43:30.161Z,22.10
2019-06-01T19:45:59.405Z,22.00
2019-06-01T19:48:28.533Z,21.80
2019-06-01T19:50:57.677Z,21.80
2019-06-01T19:53:27.545Z,21.70
2019-06-01T19:55:56.605Z,21.70
2019-06-01T19:58:25.632Z,21.70
2019-06-01T20:00:54.930Z,21.60
2019-06-01T20:03:24.091Z,21.50
2019-06-01T20:05:53.332Z,21.40
2019-06-01T20:08:22.671Z,21.30
2019-06-01T20:10:51.947Z,21.30
2019-06-01T20:13:21.453Z,21.20
2019-06-01T20:15:50.675Z,21.10
2019-06-01T20:18:19.825Z,21.10
2019-06-01T20:20:49.075Z,21.00
2019-06-01T20:23:19.527Z,20.90
2019-06-01T20:25:48.760Z,20.90
2019-06-01T20:28:17.836Z,20.80
2019-06-01T20:30:47.011Z,20.70
2019-06-01T20:33:16.181Z,20.70
2019-06-01T20:35:45.307Z,20.70
2019-06-01T20:38:14.492Z,20.60
2019-06-01T20:40:43.769Z,20.60
2019-06-01T20:43:12.931Z,20.60
2019-06-01T20:45:42.250Z,20.60
2019-06-01T20:48:13.167Z,20.50
2019-06-01T20:50:42.199Z,20.50
2019-06-01T20:53:12.701Z,20.50
2019-06-01T20:55:41.865Z,20.50
2019-06-01T20:58:11.002Z,20.50
2019-06-01T21:00:40.165Z,20.40
2019-06-01T21:03:09.342Z,20.30
2019-06-01T21:05:38.585Z,20.30
2019-06-01T21:08:08.426Z,20.20
2019-06-01T21:10:37.524Z,20.10
2019-06-01T21:13:08.015Z,20.10
2019-06-01T21:15:37.380Z,20.00
2019-06-01T21:18:06.613Z,20.00
2019-06-01T21:20:35.647Z,20.00
2019-06-01T21:23:04.811Z,20.00
2019-06-01T21:25:33.871Z,19.90
2019-06-01T21:28:02.920Z,19.90
2019-06-01T21:30:32.152Z,19.90
2019-06-01T21:33:01.330Z,20.00
2019-06-01T21:35:30.382Z,20.00
2019-06-01T21:37:59.487Z,19.90
2019-06-01T21:40:28.641Z,19.90
2019-06-01T21:43:07.192Z,19.90
2019-06-01T21:45:28.654Z,19.90
2019-06-01T21:47:57.641Z,20.00
2019-06-01T21:50:26.798Z,20.00
2019-06-01T21:52:55.901Z,19.90
2019-06-01T21:55:26.287Z,19.80
2019-06-01T21:57:55.557Z,19.70
2019-06-01T22:00:34.165Z,19.60
2019-06-01T22:03:03.431Z,19.70
2019-06-01T22:05:32.554Z,19.70
2019-06-01T22:08:02.531Z,19.70
2019-06-01T22:10:31.657Z,19.70
2019-06-01T22:13:17.229Z,19.70
2019-06-01T22:15:31.588Z,19.70
2019-06-01T22:18:00.645Z,19.80
2019-06-01T22:20:29.793Z,19.90
2019-06-01T22:22:58.819Z,19.80
2019-06-01T22:25:28.107Z,19.70
2019-06-01T22:27:57.060Z,19.60
2019-06-01T22:30:26.422Z,19.60
2019-06-01T22:32:55.561Z,19.50
2019-06-01T22:35:24.800Z,19.40
2019-06-01T22:37:53.797Z,19.30
2019-06-01T22:40:22.866Z,19.20
2019-06-01T22:42:52.125Z,19.10
2019-06-01T22:45:22.034Z,19.00
2019-06-01T22:47:51.170Z,19.00
2019-06-01T22:50:20.794Z,18.90
2019-06-01T22:52:49.965Z,18.80
2019-06-01T22:55:20.073Z,18.70
2019-06-01T22:57:49.119Z,18.60
2019-06-01T23:00:18.286Z,18.60
2019-06-01T23:02:47.276Z,18.50
2019-06-01T23:05:16.628Z,18.50
2019-06-01T23:07:45.600Z,18.40
2019-06-01T23:10:14.990Z,18.40
2019-06-01T23:12:44.155Z,18.40
2019-06-01T23:15:13.315Z,18.40
2019-06-01T23:17:42.503Z,18.30
2019-06-01T23:20:11.800Z,18.30
2019-06-01T23:22:40.898Z,18.20
2019-06-01T23:25:10.215Z,18.20
2019-06-01T23:27:39.218Z,18.20
2019-06-01T23:30:08.553Z,18.20
2019-06-01T23:32:37.819Z,18.10
2019-06-01T23:35:07.293Z,18.10
2019-06-01T23:37:36.630Z,18.00
2019-06-01T23:40:05.917Z,18.00
2019-06-01T23:42:34.993Z,18.00
2019-06-01T23:45:04.711Z,17.90
2019-06-01T23:47:33.949Z,17.90
2019-06-01T23:50:03.089Z,17.90
2019-06-01T23:52:32.222Z,17.90
2019-06-01T23:55:01.340Z,17.80
2019-06-01T23:57:30.296Z,17.80
2019-06-01T23:59:59.388Z,17.70
